FIN1DH EFHK-EDDM
Flight info
| Callsign | FIN1DH |
|---|---|
| Flight time | N/A |
| Altitude | 36000 |
| Route | VALOX Y117 ROSAX DCT ANFEV DCT PENOR DCT SUBIX DCT MAREM DCT BALTU DCT VESUB T106 TUSTO T108 LANDU LANDU2B |
| Aircraft | A321/M-SDE3FGHIRWY/LB1 |
Departure
| Time | 2026-04-24 12:47 |
|---|---|
| Airport | Helsinki Vantaa Airport (EFHK) |
Arrival
| Time | N/A |
|---|---|
| Airport | Munich Airport (EDDM) |
| Time | Latitude | Longitude | Altitude | Speed | Heading |
|---|---|---|---|---|---|
| 2026-04-24 12:12 | 60.31874 | 24.96540 | 167 ft | 0 kts | 137° |
| 2026-04-24 12:36 | 60.31888 | 24.96515 | 167 ft | 4 kts | 143° |
| 2026-04-24 12:36 | 60.31911 | 24.96488 | 167 ft | 4 kts | 167° |
| 2026-04-24 12:37 | 60.31932 | 24.96493 | 167 ft | 3 kts | 227° |
| 2026-04-24 12:37 | 60.31949 | 24.96530 | 167 ft | 4 kts | 227° |
| 2026-04-24 12:37 | 60.31955 | 24.96544 | 167 ft | 0 kts | 227° |
| 2026-04-24 12:40 | 60.31954 | 24.96541 | 167 ft | 1 kts | 227° |
| 2026-04-24 12:40 | 60.31944 | 24.96520 | 167 ft | 3 kts | 227° |
| 2026-04-24 12:40 | 60.31922 | 24.96471 | 167 ft | 7 kts | 227° |
| 2026-04-24 12:41 | 60.31888 | 24.96395 | 167 ft | 8 kts | 228° |
| 2026-04-24 12:41 | 60.31858 | 24.96295 | 167 ft | 7 kts | 251° |
| 2026-04-24 12:41 | 60.31859 | 24.96184 | 167 ft | 9 kts | 289° |
| 2026-04-24 12:41 | 60.31897 | 24.96086 | 167 ft | 9 kts | 318° |
| 2026-04-24 12:42 | 60.31925 | 24.95984 | 169 ft | 8 kts | 269° |
| 2026-04-24 12:42 | 60.31899 | 24.95894 | 170 ft | 9 kts | 227° |
| 2026-04-24 12:42 | 60.31848 | 24.95780 | 169 ft | 11 kts | 227° |
| 2026-04-24 12:42 | 60.31797 | 24.95667 | 170 ft | 11 kts | 227° |
| 2026-04-24 12:43 | 60.31743 | 24.95550 | 171 ft | 12 kts | 227° |
| 2026-04-24 12:43 | 60.31695 | 24.95444 | 171 ft | 10 kts | 227° |
| 2026-04-24 12:43 | 60.31640 | 24.95324 | 170 ft | 13 kts | 227° |
| 2026-04-24 12:43 | 60.31576 | 24.95185 | 170 ft | 14 kts | 227° |
| 2026-04-24 12:44 | 60.31507 | 24.95030 | 169 ft | 16 kts | 228° |
| 2026-04-24 12:44 | 60.31426 | 24.94848 | 166 ft | 19 kts | 228° |
| 2026-04-24 12:44 | 60.31330 | 24.94640 | 161 ft | 15 kts | 227° |
| 2026-04-24 12:44 | 60.31257 | 24.94480 | 159 ft | 16 kts | 223° |
| 2026-04-24 12:45 | 60.31182 | 24.94312 | 159 ft | 17 kts | 228° |
| 2026-04-24 12:45 | 60.31097 | 24.94129 | 157 ft | 19 kts | 226° |
| 2026-04-24 12:45 | 60.31035 | 24.93936 | 158 ft | 15 kts | 264° |
| 2026-04-24 12:45 | 60.31066 | 24.93778 | 159 ft | 11 kts | 312° |
| 2026-04-24 12:46 | 60.31123 | 24.93690 | 157 ft | 9 kts | 357° |
| 2026-04-24 12:46 | 60.31182 | 24.93754 | 159 ft | 10 kts | 43° |
| 2026-04-24 12:46 | 60.31197 | 24.93787 | 159 ft | 0 kts | 47° |
| 2026-04-24 12:46 | 60.31342 | 24.94104 | 161 ft | 68 kts | 46° |
| 2026-04-24 12:47 | 60.31818 | 24.95151 | 174 ft | 132 kts | 47° |
| 2026-04-24 12:47 | 60.32550 | 24.96773 | 275 ft | 173 kts | 43° |
| 2026-04-24 12:47 | 60.33401 | 24.98660 | 780 ft | 186 kts | 43° |
| 2026-04-24 12:47 | 60.34284 | 25.00531 | 1594 ft | 182 kts | 41° |
| 2026-04-24 12:48 | 60.35170 | 25.02403 | 2110 ft | 190 kts | 43° |
| 2026-04-24 12:48 | 60.36113 | 25.04487 | 2349 ft | 213 kts | 43° |
| 2026-04-24 12:48 | 60.37169 | 25.06834 | 2620 ft | 239 kts | 44° |
| 2026-04-24 12:48 | 60.38320 | 25.09399 | 3298 ft | 250 kts | 44° |
| 2026-04-24 12:49 | 60.39232 | 25.12442 | 4097 ft | 263 kts | 72° |
| 2026-04-24 12:49 | 60.39183 | 25.16187 | 4925 ft | 275 kts | 102° |
| 2026-04-24 12:49 | 60.38519 | 25.19851 | 5824 ft | 280 kts | 112° |
| 2026-04-24 12:49 | 60.37661 | 25.23377 | 6671 ft | 285 kts | 115° |
| 2026-04-24 12:50 | 60.36720 | 25.26946 | 7440 ft | 290 kts | 115° |
| 2026-04-24 12:50 | 60.35749 | 25.30575 | 8204 ft | 297 kts | 118° |
| 2026-04-24 12:50 | 60.34408 | 25.33842 | 8920 ft | 308 kts | 137° |
| 2026-04-24 12:50 | 60.32608 | 25.36256 | 9648 ft | 316 kts | 155° |
| 2026-04-24 12:51 | 60.30478 | 25.37542 | 10116 ft | 329 kts | 175° |
| 2026-04-24 12:51 | 60.28123 | 25.37640 | 10318 ft | 349 kts | 187° |
| 2026-04-24 12:51 | 60.25681 | 25.36744 | 10587 ft | 363 kts | 202° |
| 2026-04-24 12:51 | 60.23370 | 25.34701 | 11142 ft | 363 kts | 216° |
| 2026-04-24 12:52 | 60.21358 | 25.31677 | 11800 ft | 360 kts | 230° |
| 2026-04-24 12:52 | 60.19720 | 25.27913 | 12469 ft | 358 kts | 238° |
| 2026-04-24 12:52 | 60.18158 | 25.23988 | 13187 ft | 361 kts | 238° |
| 2026-04-24 12:52 | 60.16585 | 25.20036 | 13847 ft | 364 kts | 238° |
| 2026-04-24 12:53 | 60.15013 | 25.16095 | 14437 ft | 368 kts | 238° |
| 2026-04-24 12:53 | 60.13400 | 25.12064 | 15025 ft | 372 kts | 239° |
| 2026-04-24 12:53 | 60.11767 | 25.08001 | 15616 ft | 376 kts | 239° |
| 2026-04-24 12:53 | 60.10118 | 25.03902 | 16219 ft | 380 kts | 239° |
| 2026-04-24 12:54 | 60.08449 | 24.99761 | 16806 ft | 383 kts | 239° |
| 2026-04-24 12:54 | 60.06765 | 24.95581 | 17396 ft | 387 kts | 239° |
| 2026-04-24 12:54 | 60.05065 | 24.91375 | 17966 ft | 391 kts | 239° |
| 2026-04-24 12:54 | 60.03341 | 24.87121 | 18493 ft | 395 kts | 239° |
| 2026-04-24 12:55 | 60.01599 | 24.82833 | 19015 ft | 398 kts | 239° |
| 2026-04-24 12:55 | 59.99847 | 24.78532 | 19558 ft | 401 kts | 239° |
| 2026-04-24 12:55 | 59.98081 | 24.74196 | 20114 ft | 403 kts | 239° |
| 2026-04-24 12:55 | 59.96305 | 24.69838 | 20663 ft | 405 kts | 239° |
| 2026-04-24 12:56 | 59.94517 | 24.65461 | 21200 ft | 408 kts | 239° |
| 2026-04-24 12:56 | 59.92717 | 24.61068 | 21722 ft | 411 kts | 239° |
| 2026-04-24 12:56 | 59.90903 | 24.56649 | 22198 ft | 413 kts | 238° |
| 2026-04-24 12:56 | 59.89074 | 24.52206 | 22694 ft | 416 kts | 238° |
| 2026-04-24 12:57 | 59.87232 | 24.47744 | 23184 ft | 418 kts | 238° |
| 2026-04-24 12:57 | 59.85376 | 24.43249 | 23607 ft | 421 kts | 238° |
| 2026-04-24 12:57 | 59.83538 | 24.38800 | 23972 ft | 423 kts | 237° |
| 2026-04-24 12:57 | 59.81639 | 24.34220 | 24444 ft | 423 kts | 237° |
| 2026-04-24 12:58 | 59.79787 | 24.29767 | 24868 ft | 425 kts | 237° |
| 2026-04-24 12:58 | 59.77902 | 24.25247 | 25267 ft | 427 kts | 237° |
| 2026-04-24 12:58 | 59.76004 | 24.20701 | 25649 ft | 429 kts | 237° |
| 2026-04-24 12:58 | 59.74079 | 24.16148 | 26021 ft | 433 kts | 234° |
| 2026-04-24 12:59 | 59.71848 | 24.12032 | 26398 ft | 444 kts | 224° |
| 2026-04-24 12:59 | 59.69320 | 24.08417 | 26733 ft | 449 kts | 221° |
| 2026-04-24 12:59 | 59.66775 | 24.04833 | 27115 ft | 450 kts | 221° |
| 2026-04-24 12:59 | 59.64236 | 24.01256 | 27470 ft | 452 kts | 221° |
| 2026-04-24 13:00 | 59.63167 | 23.99752 | 27617 ft | 453 kts | 221° |
| 2026-04-24 13:00 | 59.60595 | 23.96130 | 27964 ft | 456 kts | 221° |
| 2026-04-24 13:00 | 59.58007 | 23.92485 | 28308 ft | 458 kts | 221° |
| 2026-04-24 13:00 | 59.55408 | 23.88825 | 28635 ft | 460 kts | 221° |
| 2026-04-24 13:01 | 59.52796 | 23.85156 | 28963 ft | 462 kts | 221° |
| 2026-04-24 13:01 | 59.50170 | 23.81478 | 29304 ft | 464 kts | 221° |
| 2026-04-24 13:01 | 59.48154 | 23.78547 | 29552 ft | 463 kts | 225° |
| 2026-04-24 13:02 | 59.47938 | 23.78196 | 29584 ft | 463 kts | 226° |
| 2026-04-24 13:02 | 59.45624 | 23.73832 | 29903 ft | 460 kts | 232° |
| 2026-04-24 13:02 | 59.43412 | 23.69278 | 30184 ft | 462 kts | 232° |
| 2026-04-24 13:02 | 59.42741 | 23.67896 | 30288 ft | 462 kts | 232° |
| 2026-04-24 13:03 | 59.40550 | 23.63402 | 30665 ft | 461 kts | 232° |
| 2026-04-24 13:03 | 59.39820 | 23.61909 | 30794 ft | 461 kts | 232° |
| 2026-04-24 13:03 | 59.37950 | 23.58093 | 31120 ft | 460 kts | 232° |
| 2026-04-24 13:03 | 59.35730 | 23.53578 | 31491 ft | 460 kts | 232° |
| 2026-04-24 13:04 | 59.33508 | 23.49071 | 31859 ft | 459 kts | 232° |
| 2026-04-24 13:04 | 59.31288 | 23.44573 | 32231 ft | 459 kts | 232° |
| 2026-04-24 13:04 | 59.29071 | 23.40085 | 32595 ft | 459 kts | 232° |
| 2026-04-24 13:04 | 59.26855 | 23.35599 | 32955 ft | 458 kts | 232° |
| 2026-04-24 13:05 | 59.24641 | 23.31125 | 33314 ft | 458 kts | 232° |
| 2026-04-24 13:05 | 59.22430 | 23.26663 | 33660 ft | 456 kts | 231° |
| 2026-04-24 13:05 | 59.20222 | 23.22223 | 34031 ft | 455 kts | 231° |
| 2026-04-24 13:05 | 59.18014 | 23.17794 | 34327 ft | 454 kts | 231° |
| 2026-04-24 13:06 | 59.15806 | 23.13370 | 34602 ft | 455 kts | 231° |
| 2026-04-24 13:06 | 59.13596 | 23.08955 | 34875 ft | 455 kts | 231° |
| 2026-04-24 13:06 | 59.11382 | 23.04546 | 35136 ft | 456 kts | 231° |
| 2026-04-24 13:06 | 59.09166 | 23.00140 | 35390 ft | 456 kts | 231° |
| 2026-04-24 13:07 | 59.06941 | 22.95726 | 35644 ft | 456 kts | 231° |
| 2026-04-24 13:07 | 59.04715 | 22.91321 | 35832 ft | 458 kts | 231° |
| 2026-04-24 13:07 | 59.02486 | 22.86924 | 35853 ft | 457 kts | 230° |
| 2026-04-24 13:08 | 58.98052 | 22.78184 | 35864 ft | 453 kts | 230° |
| 2026-04-24 13:08 | 58.93638 | 22.69498 | 35866 ft | 452 kts | 230° |
| 2026-04-24 13:09 | 58.87010 | 22.56528 | 35872 ft | 452 kts | 230° |
| 2026-04-24 13:09 | 58.82576 | 22.47918 | 35887 ft | 452 kts | 230° |
| 2026-04-24 13:10 | 58.78169 | 22.39385 | 35889 ft | 452 kts | 229° |
| 2026-04-24 13:10 | 58.73730 | 22.30818 | 35899 ft | 452 kts | 229° |
| 2026-04-24 13:11 | 58.69293 | 22.22269 | 35910 ft | 452 kts | 229° |
| 2026-04-24 13:11 | 58.64841 | 22.13738 | 35914 ft | 452 kts | 229° |
| 2026-04-24 13:12 | 58.60381 | 22.05228 | 35920 ft | 452 kts | 229° |
| 2026-04-24 13:12 | 58.55919 | 21.96748 | 35896 ft | 451 kts | 229° |
| 2026-04-24 13:13 | 58.51458 | 21.88302 | 35924 ft | 451 kts | 229° |
| 2026-04-24 13:13 | 58.46996 | 21.79877 | 35921 ft | 451 kts | 229° |
| 2026-04-24 13:14 | 58.42529 | 21.71491 | 35926 ft | 450 kts | 228° |
| 2026-04-24 13:14 | 58.38066 | 21.63136 | 35923 ft | 450 kts | 228° |
| 2026-04-24 13:15 | 58.33626 | 21.54843 | 35913 ft | 449 kts | 228° |
| 2026-04-24 13:15 | 58.29165 | 21.46561 | 35941 ft | 447 kts | 228° |
| 2026-04-24 13:16 | 58.24714 | 21.38329 | 35946 ft | 446 kts | 228° |
| 2026-04-24 13:16 | 58.20279 | 21.30118 | 35945 ft | 445 kts | 228° |
| 2026-04-24 13:17 | 58.15838 | 21.21933 | 35950 ft | 445 kts | 227° |
| 2026-04-24 13:17 | 58.11387 | 21.13799 | 35926 ft | 445 kts | 228° |
| 2026-04-24 13:18 | 58.06947 | 21.05713 | 35943 ft | 445 kts | 227° |
| 2026-04-24 13:18 | 58.02490 | 20.97612 | 35948 ft | 445 kts | 228° |
| 2026-04-24 13:19 | 57.98029 | 20.89521 | 35952 ft | 445 kts | 227° |
| 2026-04-24 13:19 | 57.93562 | 20.81448 | 35953 ft | 444 kts | 227° |
| 2026-04-24 13:20 | 57.89090 | 20.73415 | 35938 ft | 444 kts | 227° |
| 2026-04-24 13:20 | 57.84613 | 20.65414 | 35752 ft | 442 kts | 227° |
| 2026-04-24 13:21 | 57.82387 | 20.61441 | 35211 ft | 442 kts | 227° |
| 2026-04-24 13:21 | 57.80162 | 20.57470 | 34669 ft | 441 kts | 227° |
| 2026-04-24 13:21 | 57.77940 | 20.53502 | 34117 ft | 441 kts | 227° |
| 2026-04-24 13:21 | 57.75722 | 20.49547 | 33507 ft | 440 kts | 227° |
| 2026-04-24 13:22 | 57.73499 | 20.45601 | 32848 ft | 440 kts | 227° |
| 2026-04-24 13:22 | 57.71283 | 20.41685 | 32363 ft | 436 kts | 227° |
| 2026-04-24 13:22 | 57.69081 | 20.37806 | 31869 ft | 432 kts | 228° |
| 2026-04-24 13:22 | 57.66903 | 20.33968 | 31345 ft | 428 kts | 228° |
| 2026-04-24 13:23 | 57.64749 | 20.30172 | 30915 ft | 423 kts | 228° |
| 2026-04-24 13:23 | 57.62648 | 20.26479 | 30486 ft | 418 kts | 229° |
| 2026-04-24 13:23 | 57.60540 | 20.22776 | 30011 ft | 414 kts | 229° |
| 2026-04-24 13:23 | 57.58453 | 20.19110 | 29452 ft | 411 kts | 229° |
| 2026-04-24 13:24 | 57.56381 | 20.15475 | 28894 ft | 407 kts | 229° |
| 2026-04-24 13:24 | 57.54320 | 20.11868 | 28340 ft | 404 kts | 229° |
| 2026-04-24 13:24 | 57.52279 | 20.08303 | 27809 ft | 401 kts | 229° |
| 2026-04-24 13:24 | 57.50248 | 20.04766 | 27274 ft | 398 kts | 229° |
| 2026-04-24 13:25 | 57.48231 | 20.01258 | 26746 ft | 395 kts | 229° |
| 2026-04-24 13:25 | 57.46227 | 19.97780 | 26260 ft | 393 kts | 229° |
| 2026-04-24 13:25 | 57.44237 | 19.94333 | 25736 ft | 390 kts | 229° |
| 2026-04-24 13:25 | 57.42254 | 19.90903 | 25241 ft | 389 kts | 229° |
| 2026-04-24 13:26 | 57.40280 | 19.87493 | 24793 ft | 387 kts | 229° |
| 2026-04-24 13:26 | 57.38317 | 19.84106 | 24359 ft | 384 kts | 229° |
| 2026-04-24 13:26 | 57.36366 | 19.80742 | 23945 ft | 382 kts | 229° |
| 2026-04-24 13:26 | 57.34424 | 19.77396 | 23527 ft | 380 kts | 228° |
| 2026-04-24 13:27 | 57.32492 | 19.74077 | 23035 ft | 378 kts | 228° |
| 2026-04-24 13:27 | 57.30572 | 19.70783 | 22552 ft | 375 kts | 228° |
| 2026-04-24 13:27 | 57.28658 | 19.67509 | 22065 ft | 373 kts | 228° |
| 2026-04-24 13:27 | 57.26757 | 19.64262 | 21599 ft | 371 kts | 228° |
| 2026-04-24 13:28 | 57.24900 | 19.61091 | 21120 ft | 368 kts | 228° |
| 2026-04-24 13:28 | 57.24331 | 19.60119 | 20983 ft | 368 kts | 228° |
| 2026-04-24 13:28 | 57.22457 | 19.56923 | 20518 ft | 365 kts | 228° |
| 2026-04-24 13:28 | 57.20594 | 19.53751 | 20038 ft | 363 kts | 228° |
| 2026-04-24 13:29 | 57.18860 | 19.50438 | 19557 ft | 354 kts | 240° |
| 2026-04-24 13:29 | 57.17845 | 19.46438 | 19104 ft | 340 kts | 261° |
| 2026-04-24 13:29 | 57.17667 | 19.42161 | 18621 ft | 333 kts | 275° |
| 2026-04-24 13:29 | 57.17762 | 19.37906 | 18112 ft | 332 kts | 276° |
| 2026-04-24 13:30 | 57.17877 | 19.33668 | 17589 ft | 330 kts | 276° |
| 2026-04-24 13:30 | 57.17992 | 19.29452 | 17077 ft | 328 kts | 276° |
| 2026-04-24 13:30 | 57.18115 | 19.25276 | 16581 ft | 325 kts | 276° |
| 2026-04-24 13:30 | 57.18235 | 19.21185 | 16098 ft | 323 kts | 276° |
| 2026-04-24 13:31 | 57.18355 | 19.17062 | 15616 ft | 321 kts | 276° |
| 2026-04-24 13:31 | 57.18473 | 19.12959 | 15139 ft | 319 kts | 276° |
| 2026-04-24 13:31 | 57.18587 | 19.08938 | 14957 ft | 308 kts | 276° |
| 2026-04-24 13:31 | 57.18924 | 19.05144 | 14828 ft | 292 kts | 291° |
| 2026-04-24 13:32 | 57.19855 | 19.01855 | 14276 ft | 294 kts | 306° |
| 2026-04-24 13:32 | 57.21070 | 18.98729 | 13503 ft | 304 kts | 306° |
| 2026-04-24 13:32 | 57.22323 | 18.95567 | 12936 ft | 305 kts | 307° |
| 2026-04-24 13:32 | 57.23579 | 18.92403 | 12431 ft | 304 kts | 307° |
| 2026-04-24 13:33 | 57.24823 | 18.89254 | 11946 ft | 303 kts | 306° |
| 2026-04-24 13:33 | 57.26058 | 18.86110 | 11488 ft | 302 kts | 306° |
| 2026-04-24 13:33 | 57.27282 | 18.82986 | 11126 ft | 297 kts | 306° |
| 2026-04-24 13:33 | 57.28467 | 18.79950 | 10994 ft | 285 kts | 306° |
| 2026-04-24 13:34 | 57.29605 | 18.77033 | 10832 ft | 275 kts | 306° |
| 2026-04-24 13:34 | 57.30715 | 18.74187 | 10507 ft | 272 kts | 306° |
| 2026-04-24 13:34 | 57.31819 | 18.71351 | 10141 ft | 270 kts | 306° |
| 2026-04-24 13:34 | 57.32898 | 18.68578 | 9567 ft | 268 kts | 306° |
| 2026-04-24 13:35 | 57.33989 | 18.65781 | 8925 ft | 267 kts | 306° |
| 2026-04-24 13:35 | 57.35075 | 18.62993 | 8313 ft | 266 kts | 306° |
| 2026-04-24 13:35 | 57.36155 | 18.60208 | 7726 ft | 265 kts | 306° |
| 2026-04-24 13:35 | 57.37227 | 18.57435 | 7189 ft | 264 kts | 306° |
| 2026-04-24 13:36 | 57.38295 | 18.54665 | 6648 ft | 263 kts | 306° |
| 2026-04-24 13:36 | 57.39356 | 18.51912 | 6115 ft | 262 kts | 307° |
| 2026-04-24 13:36 | 57.40412 | 18.49169 | 5550 ft | 261 kts | 307° |